Aviation Digital Data Service (ADDS)

Output produced by METARs form (1738 UTC 27 May 2017)
found at http://www.aviationweather.gov/adds/metars/
 
GMAD 271730Z 24013G23KT 200V270 9999 FEW020 22/14 Q1014 NOSIG
TAF GMAD 271700Z 2718/2824 25015KT 9999 FEW020 
     BECMG 2721/2723 12005KT BKN016 
     BECMG 2812/2814 27014KT FEW020
       
GMMC 271700Z 36006KT 9999 BKN016 23/18 Q1013
GMFO 271700Z 32015KT 9999 FEW026 26/16 Q1013 NOSIG
TAF GMFO 271700Z 2718/2824 36015KT 9999 FEW026 
     PROB30 
     TEMPO 2722/2804 2000 BR SCT006 
     BECMG 2808/2810 22010KT CAVOK 
     BECMG 2814/2818 36012KT
       
GMMW 271700Z 04012KT 9999 FEW023 23/15 Q1013 NOSIG
TAF GMMW 271700Z 2718/2824 04012KT 9999 FEW023 
     BECMG 2718/2721 VRB02KT BKN013 
     PROB40 
     TEMPO 2800/2809 4000 -DZ 
     PROB30 
     TEMPO 2818/2824 3000 -TSRA BKN006CB BKN200 
       
GMFM 271700Z 32008KT 270V360 8000 SCT020 FEW026CB 26/17 Q1014 NOSIG
TAF GMFM 271700Z 2718/2824 32010KT 8000 SCT020 
     BECMG 2800/2802 02006KT 
     PROB30 
     TEMPO 2806/2809 4000 BR BKN010 
     BECMG 2814/2816 30010KT
       
GMTA 271700Z 32006KT 8000 FEW020 SCT200 26/18 Q1012 NOSIG
TAF GMTA 271700Z 2718/2824 32006KT 8000 FEW020 SCT200 
     BECMG 2720/2723 VRB02KT BKN007 
     PROB40 
     TEMPO 2800/2809 3000 -DZ 
     PROB40 
     TEMPO 2820/2824 3000 TSRA BKN007CB BKN070 
       
GMMI 271700Z 34008KT 8000 FEW016 23/12 Q1015 NOSIG
TAF GMMI 271700Z 2718/2824 34008KT 8000 FEW016 
     PROB40 2721/2807 3000 BR 
     PROB40 2822/2924 3000 BR
       
GMAD 271730Z 24013G23KT 200V270 9999 FEW020 22/14 Q1014 NOSIG
TAF GMAD 271700Z 2718/2824 25015KT 9999 FEW020 
     BECMG 2721/2723 12005KT BKN016 
     BECMG 2812/2814 27014KT FEW020
       
GMAG 271700Z 35014KT 9999 FEW016 24/15 Q1012 NOSIG
GMAT 271700Z 35015KT CAVOK 22/14 Q1015 NOSIG
GMFF 271700Z 32012KT 290V350 9999 FEW030 FEW033CB SCT230 29/17 Q1014 NOSIG
TAF GMFF 271700Z 2718/2824 32012KT 9999 FEW030 FEW033CB SCT230 
     BECMG 2718/2722 CAVOK 
     BECMG 2810/2814 SCT033 FEW040CB PBOB30 
     TEMPO 2815/2820 TSRA
       
GMFK 271700Z 19005KT 9999 FEW030 36/M12 Q1014 NOSIG
GMFM 271700Z 32008KT 270V360 8000 SCT020 FEW026CB 26/17 Q1014 NOSIG
TAF GMFM 271700Z 2718/2824 32010KT 8000 SCT020 
     BECMG 2800/2802 02006KT 
     PROB30 
     TEMPO 2806/2809 4000 BR BKN010 
     BECMG 2814/2816 30010KT
       
GMFO 271700Z 32015KT 9999 FEW026 26/16 Q1013 NOSIG
TAF GMFO 271700Z 2718/2824 36015KT 9999 FEW026 
     PROB30 
     TEMPO 2722/2804 2000 BR SCT006 
     BECMG 2808/2810 22010KT CAVOK 
     BECMG 2814/2818 36012KT
       
GMMB 271700Z 32009KT 280V350 9999 BKN020 23/17 Q1015 NOSIG
GMMC 271700Z 36006KT 9999 BKN016 23/18 Q1013
GMMD 271700Z 22012KT 9999 FEW026 28/15 Q1013 NOSIG
GMME 271730Z 35009KT 8000 FEW026 22/14 Q1014 NOSIG
TAF GMME 271700Z 2718/2824 28004KT 6000 SCT026 
     TEMPO 2800/2805 36004KT CAVOK 
     PROB30 
     TEMPO 2807/2812 RA BKN013 BKN016 
     BECMG 2814/2818 32011KT 8000 NSW NSC
       
GMMH 271700Z 36019KT CAVOK 23/17 Q1015 NOSIG
TAF GMMH 271700Z 2718/2824 36019KT CAVOK
       
GMMI 271700Z 34008KT 8000 FEW016 23/12 Q1015 NOSIG
TAF GMMI 271700Z 2718/2824 34008KT 8000 FEW016 
     PROB40 2721/2807 3000 BR 
     PROB40 2822/2924 3000 BR
       
GMML 271700Z 33015KT CAVOK 25/14 Q1015 NOSIG
TAF GMML 270500Z 2706/2812 04004KT 9999 FEW017 
     TEMPO 2706/2710 SCT013
       
GMMN 271730Z /////KT 9999 SCT020 23/17 Q1015 NOSIG
TAF GMMN 271700Z 2718/2824 32010KT 9999 SCT020 
     BECMG 2720/2724 02006KT 6000 
     BECMG 2808/2811 34010KT 9999 SCT016
       
GMMW 271700Z 04012KT 9999 FEW023 23/15 Q1013 NOSIG
TAF GMMW 271700Z 2718/2824 04012KT 9999 FEW023 
     BECMG 2718/2721 VRB02KT BKN013 
     PROB40 
     TEMPO 2800/2809 4000 -DZ 
     PROB30 
     TEMPO 2818/2824 3000 -TSRA BKN006CB BKN200 
       
GMMX 271730Z 24006KT 9999 OVC023 24/13 Q1015 NOSIG
TAF GMMX 271700Z 2718/2824 24005KT 8000 SCT020 SCT080 
     TEMPO 2804/2810 5000 BKN013 
     TEMPO 2815/28148 02015KT
       
GMMZ 271700Z 16008KT 9999 FEW040 35/M02 Q1012 NOSIG
TAF GMMZ 271700Z 2718/2824 16012KT 9999 FEW040 
     BECMG 2720/2722 VRB02KT CAVOK 
     TEMPO 2815/2823 06020G30KT
       
GMTA 271700Z 32006KT 8000 FEW020 SCT200 26/18 Q1012 NOSIG
TAF GMTA 271700Z 2718/2824 32006KT 8000 FEW020 SCT200 
     BECMG 2720/2723 VRB02KT BKN007 
     PROB40 
     TEMPO 2800/2809 3000 -DZ 
     PROB40 
     TEMPO 2820/2824 3000 TSRA BKN007CB BKN070 
       
GMTN 271700Z 05010KT 8000 NSC 23/16 Q1013 NOSIG
GMTT 271730Z 14016KT 8000 FEW016 SCT200 27/11 Q1013 NOSIG
TAF GMTT 271100Z 2712/2818 08018KT 6000 SCT016 
     TEMPO 2718/2806 VRB02KT 2000 BR SCT003 
     BECMG 2806/2809 32012KT
       
GMTT 271730Z 14016KT 8000 FEW016 SCT200 27/11 Q1013 NOSIG
TAF GMTT 271100Z 2712/2818 08018KT 6000 SCT016 
     TEMPO 2718/2806 VRB02KT 2000 BR SCT003 
     BECMG 2806/2809 32012KT
       
GMMX 271730Z 24006KT 9999 OVC023 24/13 Q1015 NOSIG
TAF GMMX 271700Z 2718/2824 24005KT 8000 SCT020 SCT080 
     TEMPO 2804/2810 5000 BKN013 
     TEMPO 2815/28148 02015KT
       
GMMN 271730Z /////KT 9999 SCT020 23/17 Q1015 NOSIG
TAF GMMN 271700Z 2718/2824 32010KT 9999 SCT020 
     BECMG 2720/2724 02006KT 6000 
     BECMG 2808/2811 34010KT 9999 SCT016
       
GMFK 271700Z 19005KT 9999 FEW030 36/M12 Q1014 NOSIG
GMMZ 271700Z 16008KT 9999 FEW040 35/M02 Q1012 NOSIG
TAF GMMZ 271700Z 2718/2824 16012KT 9999 FEW040 
     BECMG 2720/2722 VRB02KT CAVOK 
     TEMPO 2815/2823 06020G30KT
       
GMAT 271700Z 35015KT CAVOK 22/14 Q1015 NOSIG
GMFF 271700Z 32012KT 290V350 9999 FEW030 FEW033CB SCT230 29/17 Q1014 NOSIG
TAF GMFF 271700Z 2718/2824 32012KT 9999 FEW030 FEW033CB SCT230 
     BECMG 2718/2722 CAVOK 
     BECMG 2810/2814 SCT033 FEW040CB PBOB30 
     TEMPO 2815/2820 TSRA
       
GMME 271730Z 35009KT 8000 FEW026 22/14 Q1014 NOSIG
TAF GMME 271700Z 2718/2824 28004KT 6000 SCT026 
     TEMPO 2800/2805 36004KT CAVOK 
     PROB30 
     TEMPO 2807/2812 RA BKN013 BKN016 
     BECMG 2814/2818 32011KT 8000 NSW NSC
       
GMTN 271700Z 05010KT 8000 NSC 23/16 Q1013 NOSIG